Time;durP1;ratioP1;P1;durP2;ratioP2;P2;SDS_P1;SDS_P2;PMS_P1;PMS_P2;Temp;Humidity;BMP_temperature;BMP_pressure;BME280_temperature;BME280_humidity;BME280_pressure;Samples;Min_cycle;Max_cycle;Signal;HPM_P1;HPM_P2
2021/12/02 00:00:10;;;;;;;10.05;2.20;;;;;;;;;;5076205;28;20227;-69
2021/12/02 00:02:37;;;;;;;13.90;3.28;;;;;;;;;;5076174;28;20238;-69
2021/12/02 00:05:05;;;;;;;7.00;2.30;;;;;;;;;;5076141;28;20192;-69
2021/12/02 00:07:32;;;;;;;10.25;3.70;;;;;;;;;;5075765;28;20203;-68
2021/12/02 00:10:00;;;;;;;10.32;3.35;;;;;;;;;;5076381;28;20196;-68
2021/12/02 00:12:28;;;;;;;7.07;2.25;;;;;;;;;;5075972;28;20283;-69
2021/12/02 00:14:59;;;;;;;4.15;1.90;;;;;;;;;;5075705;28;20630;-69
2021/12/02 00:17:28;;;;;;;5.93;2.40;;;;;;;;;;5076413;28;20256;-69
2021/12/02 00:22:53;;;;;;;13.90;3.08;;;;;;;;;;5075705;28;20545;-69
2021/12/02 00:25:22;;;;;;;6.57;2.15;;;;;;;;;;5076255;28;20187;-69
2021/12/02 00:27:50;;;;;;;5.40;1.95;;;;;;;;;;5075152;28;20321;-68
2021/12/02 00:30:19;;;;;;;5.47;2.42;;;;;;;;;;5075684;28;20580;-68
2021/12/02 00:32:49;;;;;;;5.53;1.98;;;;;;;;;;5076112;28;20226;-68
2021/12/02 00:35:17;;;;;;;7.25;2.65;;;;;;;;;;5075388;28;20195;-69
2021/12/02 00:37:44;;;;;;;16.20;2.10;;;;;;;;;;5075241;28;20281;-69
2021/12/02 00:40:12;;;;;;;6.68;2.33;;;;;;;;;;5075068;28;20701;-68
2021/12/02 00:42:40;;;;;;;5.10;1.92;;;;;;;;;;5076059;28;20281;-68
2021/12/02 00:45:07;;;;;;;12.63;2.30;;;;;;;;;;5075340;28;20195;-69
2021/12/02 00:47:37;;;;;;;9.50;2.35;;;;;;;;;;5075894;28;20223;-68
2021/12/02 00:50:05;;;;;;;6.78;3.28;;;;;;;;;;5074944;28;20199;-69
2021/12/02 00:52:32;;;;;;;8.98;2.40;;;;;;;;;;5075085;28;20725;-68
2021/12/02 00:55:00;;;;;;;12.40;2.55;;;;;;;;;;5074835;28;20717;-69
2021/12/02 00:57:29;;;;;;;6.68;3.00;;;;;;;;;;5074913;28;20297;-69
2021/12/02 00:59:58;;;;;;;3.95;1.77;;;;;;;;;;5075244;28;20309;-69
2021/12/02 01:02:26;;;;;;;11.07;2.50;;;;;;;;;;5074978;28;20203;-69
2021/12/02 01:04:55;;;;;;;13.57;2.75;;;;;;;;;;5074927;28;20233;-69
2021/12/02 01:12:36;;;;;;;8.75;2.20;;;;;;;;;;5270632;22;20775;-68
2021/12/02 01:15:03;;;;;;;6.60;2.40;;;;;;;;;;5074197;28;20237;-68
2021/12/02 01:17:30;;;;;;;7.00;2.65;;;;;;;;;;5074678;28;20205;-69
2021/12/02 01:19:59;;;;;;;8.65;2.75;;;;;;;;;;5074270;28;20306;-69
2021/12/02 01:22:32;;;;;;;13.68;2.90;;;;;;;;;;5074574;28;20287;-69
2021/12/02 01:25:00;;;;;;;10.02;4.07;;;;;;;;;;5074252;28;20182;-68
2021/12/02 01:27:27;;;;;;;8.20;2.40;;;;;;;;;;5074463;28;20196;-68
2021/12/02 01:29:54;;;;;;;6.32;2.65;;;;;;;;;;5074897;28;20289;-68
2021/12/02 01:32:22;;;;;;;7.57;2.83;;;;;;;;;;5074444;28;20230;-69
2021/12/02 01:34:50;;;;;;;7.82;2.85;;;;;;;;;;5074366;28;20599;-69
2021/12/02 01:37:19;;;;;;;11.32;2.35;;;;;;;;;;5074993;28;20204;-69
2021/12/02 01:39:46;;;;;;;13.10;2.58;;;;;;;;;;5073954;28;20210;-68
2021/12/02 01:42:18;;;;;;;16.85;3.75;;;;;;;;;;5074126;28;20277;-69
2021/12/02 01:44:46;;;;;;;8.27;2.30;;;;;;;;;;5074314;28;20630;-69
2021/12/02 01:47:15;;;;;;;7.85;2.92;;;;;;;;;;5073858;28;20192;-69
2021/12/02 01:49:43;;;;;;;3.08;2.75;;;;;;;;;;5073183;28;20221;-69
2021/12/02 01:52:12;;;;;;;5.10;2.55;;;;;;;;;;5073772;28;20253;-69
2021/12/02 01:54:45;;;;;;;10.98;2.70;;;;;;;;;;5074338;28;20287;-69
2021/12/02 01:57:18;;;;;;;6.65;2.75;;;;;;;;;;5074306;28;20187;-69
2021/12/02 01:59:49;;;;;;;12.95;2.40;;;;;;;;;;5073697;28;20266;-69
2021/12/02 02:02:18;;;;;;;11.05;2.90;;;;;;;;;;5074073;28;20237;-69
2021/12/02 02:04:46;;;;;;;8.30;3.30;;;;;;;;;;5073915;28;20282;-68
2021/12/02 02:07:14;;;;;;;9.52;2.60;;;;;;;;;;5073865;28;20282;-68
2021/12/02 02:09:43;;;;;;;4.80;1.88;;;;;;;;;;5073816;28;20289;-68
2021/12/02 02:12:11;;;;;;;6.70;2.17;;;;;;;;;;5073499;28;20623;-68
2021/12/02 02:14:39;;;;;;;10.07;3.35;;;;;;;;;;5073451;28;20198;-69
2021/12/02 02:17:12;;;;;;;7.50;3.72;;;;;;;;;;5073421;28;20198;-68
2021/12/02 02:19:39;;;;;;;6.82;2.20;;;;;;;;;;5074461;28;20187;-69
2021/12/02 02:22:08;;;;;;;4.72;3.08;;;;;;;;;;5073306;28;20227;-69
2021/12/02 02:24:35;;;;;;;5.72;1.90;;;;;;;;;;5073355;28;20234;-68
2021/12/02 02:27:04;;;;;;;13.15;2.55;;;;;;;;;;5073577;28;20190;-68
2021/12/02 02:29:31;;;;;;;4.90;3.28;;;;;;;;;;5073571;28;20198;-68
2021/12/02 02:31:59;;;;;;;7.93;2.42;;;;;;;;;;5073977;28;20290;-69
2021/12/02 02:34:26;;;;;;;10.65;3.05;;;;;;;;;;5073540;28;20275;-69
2021/12/02 02:36:55;;;;;;;8.02;1.80;;;;;;;;;;5073381;28;20225;-69
2021/12/02 02:39:24;;;;;;;5.03;1.90;;;;;;;;;;5073586;28;20197;-70
2021/12/02 02:41:57;;;;;;;5.45;2.75;;;;;;;;;;5072979;28;20231;-70
2021/12/02 02:44:24;;;;;;;7.97;2.83;;;;;;;;;;5073078;28;20183;-69
2021/12/02 02:46:52;;;;;;;7.82;2.80;;;;;;;;;;5073081;28;20654;-70
2021/12/02 02:49:19;;;;;;;9.05;2.38;;;;;;;;;;5072993;28;20238;-70
2021/12/02 02:51:46;;;;;;;6.28;2.38;;;;;;;;;;5072926;28;20204;-70
2021/12/02 02:54:16;;;;;;;10.50;2.60;;;;;;;;;;5073687;28;20543;-71
2021/12/02 02:56:49;;;;;;;3.22;2.50;;;;;;;;;;5073237;28;20565;-71
2021/12/02 02:59:25;;;;;;;5.00;2.13;;;;;;;;;;5073246;28;20270;-72
2021/12/02 03:02:02;;;;;;;14.80;2.78;;;;;;;;;;5076498;28;20234;-71
2021/12/02 03:04:36;;;;;;;5.55;2.00;;;;;;;;;;5077156;28;20643;-72
2021/12/02 03:07:05;;;;;;;6.80;2.63;;;;;;;;;;5076781;28;20715;-72
2021/12/02 03:09:51;;;;;;;8.68;2.85;;;;;;;;;;5077163;28;20251;-71
2021/12/02 03:12:25;;;;;;;7.20;2.78;;;;;;;;;;5077501;28;20263;-72
2021/12/02 03:16:37;;;;;;;10.30;2.42;;;;;;;;;;5077056;28;20181;-72
2021/12/02 03:17:41;;;;;;;10.93;2.90;;;;;;;;;;5076512;28;20648;-71
2021/12/02 03:20:09;;;;;;;13.82;2.90;;;;;;;;;;5076561;28;20212;-72
2021/12/02 03:22:36;;;;;;;8.57;2.63;;;;;;;;;;5076811;28;20234;-72
2021/12/02 03:25:04;;;;;;;9.50;2.90;;;;;;;;;;5076802;28;20303;-71
2021/12/02 03:27:33;;;;;;;7.25;2.35;;;;;;;;;;5077019;28;20198;-72
2021/12/02 03:30:00;;;;;;;6.95;2.83;;;;;;;;;;5077253;28;20196;-72
2021/12/02 03:32:27;;;;;;;5.03;2.22;;;;;;;;;;5077156;28;20230;-72
2021/12/02 03:34:54;;;;;;;10.90;3.78;;;;;;;;;;5077112;28;20199;-72
2021/12/02 03:37:22;;;;;;;5.25;2.95;;;;;;;;;;5076928;28;20632;-73
2021/12/02 03:39:49;;;;;;;8.35;2.75;;;;;;;;;;5076760;28;20287;-73
2021/12/02 03:42:16;;;;;;;7.60;2.58;;;;;;;;;;5076836;28;20565;-73
2021/12/02 03:44:45;;;;;;;7.00;2.53;;;;;;;;;;5076447;28;20310;-73
2021/12/02 03:47:12;;;;;;;3.42;2.25;;;;;;;;;;5076049;28;20731;-73
2021/12/02 03:49:40;;;;;;;4.53;2.90;;;;;;;;;;5076367;28;20197;-73
2021/12/02 03:52:09;;;;;;;3.20;1.98;;;;;;;;;;5076037;28;20199;-72
2021/12/02 03:54:36;;;;;;;4.05;2.75;;;;;;;;;;5076727;28;20202;-72
2021/12/02 03:57:04;;;;;;;8.52;2.55;;;;;;;;;;5075960;28;20287;-72
2021/12/02 03:59:32;;;;;;;14.90;2.92;;;;;;;;;;5076580;28;20226;-72
2021/12/02 04:02:01;;;;;;;2.60;2.00;;;;;;;;;;5076151;28;20617;-72
2021/12/02 04:04:28;;;;;;;4.60;2.30;;;;;;;;;;5076155;28;20192;-72
2021/12/02 04:06:55;;;;;;;11.90;3.03;;;;;;;;;;5075839;28;20201;-73
2021/12/02 04:09:25;;;;;;;8.32;1.88;;;;;;;;;;5076114;28;20199;-72
2021/12/02 04:17:04;;;;;;;13.10;2.33;;;;;;;;;;5269407;22;20769;-72
2021/12/02 04:19:31;;;;;;;2.13;1.92;;;;;;;;;;5016219;28;20423;-72
2021/12/02 04:21:59;;;;;;;2.70;1.60;;;;;;;;;;5016126;28;20313;-71
2021/12/02 04:24:26;;;;;;;8.65;1.92;;;;;;;;;;5016060;28;20196;-73
2021/12/02 04:26:54;;;;;;;7.68;1.80;;;;;;;;;;5016074;28;20284;-73
2021/12/02 04:29:23;;;;;;;3.78;1.48;;;;;;;;;;5016021;28;20291;-73
2021/12/02 04:31:50;;;;;;;2.35;1.73;;;;;;;;;;5015636;28;20211;-73
2021/12/02 04:34:19;;;;;;;3.05;1.85;;;;;;;;;;5016209;28;20230;-73
2021/12/02 04:36:46;;;;;;;4.78;2.17;;;;;;;;;;5015593;28;20243;-73
2021/12/02 04:39:14;;;;;;;2.15;1.48;;;;;;;;;;5015563;28;20287;-73
2021/12/02 04:41:41;;;;;;;16.55;2.05;;;;;;;;;;5015691;28;20574;-73
2021/12/02 04:44:08;;;;;;;7.68;1.63;;;;;;;;;;5015685;28;20202;-73
2021/12/02 04:46:35;;;;;;;6.40;2.10;;;;;;;;;;5015769;28;20285;-73
2021/12/02 04:49:03;;;;;;;4.00;1.65;;;;;;;;;;5015286;28;20291;-72
2021/12/02 04:51:31;;;;;;;1.63;1.48;;;;;;;;;;5015578;28;20287;-72
2021/12/02 04:53:58;;;;;;;3.58;1.90;;;;;;;;;;5015844;28;20619;-73
2021/12/02 04:56:26;;;;;;;3.55;2.00;;;;;;;;;;5015407;28;20288;-72
2021/12/02 04:58:53;;;;;;;1.80;1.60;;;;;;;;;;5015424;28;20553;-72
2021/12/02 05:01:20;;;;;;;2.00;1.60;;;;;;;;;;5015187;28;20570;-72
2021/12/02 05:03:47;;;;;;;5.05;1.73;;;;;;;;;;5014994;28;20287;-72
2021/12/02 05:06:14;;;;;;;5.22;2.67;;;;;;;;;;5015243;28;20351;-73
2021/12/02 05:08:43;;;;;;;2.25;1.35;;;;;;;;;;5015273;28;20246;-71
2021/12/02 05:11:10;;;;;;;1.77;1.67;;;;;;;;;;5015149;28;20198;-72
2021/12/02 05:13:38;;;;;;;5.90;1.88;;;;;;;;;;5015549;28;20285;-78
2021/12/02 05:16:05;;;;;;;3.42;1.95;;;;;;;;;;5014803;28;20292;-75
2021/12/02 05:18:33;;;;;;;2.55;1.88;;;;;;;;;;5015060;28;20255;-78
2021/12/02 05:21:00;;;;;;;7.78;3.15;;;;;;;;;;5014902;28;20619;-77
2021/12/02 05:23:27;;;;;;;3.78;2.50;;;;;;;;;;5014456;28;20288;-78
2021/12/02 05:25:56;;;;;;;3.83;2.28;;;;;;;;;;5014500;28;20283;-80
2021/12/02 05:28:23;;;;;;;3.35;2.30;;;;;;;;;;4994997;28;20286;-78
2021/12/02 05:30:51;;;;;;;4.57;2.25;;;;;;;;;;4995000;28;20296;-78
2021/12/02 05:33:18;;;;;;;4.28;2.20;;;;;;;;;;4994829;28;20294;-78
2021/12/02 05:35:45;;;;;;;3.17;2.13;;;;;;;;;;4994884;28;20297;-78
2021/12/02 05:38:12;;;;;;;2.97;2.70;;;;;;;;;;4994806;28;20233;-78
2021/12/02 05:40:40;;;;;;;6.05;2.67;;;;;;;;;;4994742;28;20236;-77
2021/12/02 05:43:08;;;;;;;5.93;2.78;;;;;;;;;;4995077;28;20283;-77
2021/12/02 05:45:37;;;;;;;6.78;2.35;;;;;;;;;;4994997;28;20217;-75
2021/12/02 05:48:05;;;;;;;5.65;2.70;;;;;;;;;;4994574;28;20294;-76
2021/12/02 05:50:32;;;;;;;2.60;2.40;;;;;;;;;;4994926;28;20239;-76
2021/12/02 05:52:59;;;;;;;3.40;2.40;;;;;;;;;;4994796;28;20205;-77
2021/12/02 05:55:26;;;;;;;6.43;3.28;;;;;;;;;;4994813;28;20302;-76
2021/12/02 05:57:53;;;;;;;3.40;2.95;;;;;;;;;;4994839;28;20713;-77
2021/12/02 06:00:22;;;;;;;4.63;3.35;;;;;;;;;;4995346;28;20217;-73
2021/12/02 06:02:49;;;;;;;5.45;2.67;;;;;;;;;;4994633;28;20655;-77
2021/12/02 06:05:19;;;;;;;2.53;2.33;;;;;;;;;;4994376;28;20247;-74
2021/12/02 06:07:49;;;;;;;4.43;3.00;;;;;;;;;;4994392;28;20653;-74
2021/12/02 06:10:17;;;;;;;4.35;3.50;;;;;;;;;;4994910;28;20620;-74
2021/12/02 06:12:44;;;;;;;2.60;2.40;;;;;;;;;;4994144;28;20216;-75
2021/12/02 06:15:11;;;;;;;5.03;3.05;;;;;;;;;;4994541;28;20288;-77
2021/12/02 06:17:42;;;;;;;5.57;2.65;;;;;;;;;;4994463;28;20260;-76
2021/12/02 06:20:10;;;;;;;3.10;2.83;;;;;;;;;;4995107;28;20597;-76
2021/12/02 06:22:37;;;;;;;2.80;2.60;;;;;;;;;;4993813;28;20307;-75
2021/12/02 06:25:44;;;;;;;4.88;3.30;;;;;;;;;;4994420;28;20666;-74
2021/12/02 06:28:06;;;;;;;4.88;4.50;;;;;;;;;;4993766;28;20202;-73
2021/12/02 06:30:34;;;;;;;3.22;2.92;;;;;;;;;;4994254;28;20219;-74
2021/12/02 06:33:02;;;;;;;4.40;3.53;;;;;;;;;;4994116;28;20288;-72
2021/12/02 06:35:30;;;;;;;2.30;2.10;;;;;;;;;;4993452;28;20202;-74
2021/12/02 06:37:57;;;;;;;4.70;3.22;;;;;;;;;;4994262;28;20285;-76
2021/12/02 06:40:25;;;;;;;2.58;2.38;;;;;;;;;;4993688;28;20209;-70
2021/12/02 06:42:52;;;;;;;3.25;2.22;;;;;;;;;;4993616;28;20218;-71
2021/12/02 06:45:20;;;;;;;2.30;2.15;;;;;;;;;;4993336;28;20196;-71
2021/12/02 06:47:47;;;;;;;3.30;2.90;;;;;;;;;;4994285;28;20230;-71
2021/12/02 06:50:18;;;;;;;2.22;1.90;;;;;;;;;;4994268;28;20260;-71
2021/12/02 06:52:45;;;;;;;4.75;2.50;;;;;;;;;;4994486;28;20618;-70
2021/12/02 06:55:13;;;;;;;4.25;2.30;;;;;;;;;;4993645;28;20198;-71
2021/12/02 06:57:41;;;;;;;3.28;2.67;;;;;;;;;;4993630;28;20298;-70
2021/12/02 07:00:09;;;;;;;4.70;3.05;;;;;;;;;;4993583;28;20294;-70
2021/12/02 07:02:37;;;;;;;3.63;2.60;;;;;;;;;;4993446;28;20272;-70
2021/12/02 07:05:05;;;;;;;4.75;3.00;;;;;;;;;;4993584;28;20353;-70
2021/12/02 07:07:36;;;;;;;7.03;2.97;;;;;;;;;;4994461;28;20303;-71
2021/12/02 07:10:03;;;;;;;3.63;2.40;;;;;;;;;;4994329;28;20238;-70
2021/12/02 07:12:33;;;;;;;3.20;2.65;;;;;;;;;;4993591;28;20257;-69
2021/12/02 07:15:05;;;;;;;2.60;2.40;;;;;;;;;;4993825;28;20288;-71
2021/12/02 07:17:33;;;;;;;2.40;2.00;;;;;;;;;;4993991;28;20315;-69
2021/12/02 07:20:01;;;;;;;3.50;2.88;;;;;;;;;;4994222;28;20202;-69
2021/12/02 07:22:28;;;;;;;3.00;2.75;;;;;;;;;;4993713;28;20230;-69
2021/12/02 07:24:57;;;;;;;11.70;3.15;;;;;;;;;;4993447;28;20277;-69
2021/12/02 07:27:24;;;;;;;5.55;3.05;;;;;;;;;;4993780;28;20301;-70
2021/12/02 07:29:51;;;;;;;4.05;3.15;;;;;;;;;;4993401;28;20283;-70
2021/12/02 07:32:23;;;;;;;8.45;2.50;;;;;;;;;;4993501;28;20623;-71
2021/12/02 07:34:55;;;;;;;6.72;3.20;;;;;;;;;;4994037;28;20207;-70
2021/12/02 07:37:24;;;;;;;4.15;3.20;;;;;;;;;;4993712;28;20232;-71
2021/12/02 07:39:52;;;;;;;2.20;2.10;;;;;;;;;;4993701;28;20232;-71
2021/12/02 07:42:21;;;;;;;4.57;2.70;;;;;;;;;;4993530;28;20226;-71
2021/12/02 07:44:49;;;;;;;1.95;1.85;;;;;;;;;;4993524;28;20288;-70
2021/12/02 07:47:16;;;;;;;2.80;2.60;;;;;;;;;;4994140;28;20625;-70
2021/12/02 07:49:43;;;;;;;3.85;3.10;;;;;;;;;;4997093;28;20335;-71
2021/12/02 07:52:14;;;;;;;2.80;2.60;;;;;;;;;;4996622;28;20713;-71
2021/12/02 07:54:44;;;;;;;6.70;3.28;;;;;;;;;;4997214;28;20200;-71
2021/12/02 07:57:24;;;;;;;2.70;2.50;;;;;;;;;;4996974;28;20199;-69
2021/12/02 07:59:56;;;;;;;4.38;2.63;;;;;;;;;;4996501;28;20695;-70
2021/12/02 08:02:41;;;;;;;3.85;2.33;;;;;;;;;;4996385;28;20212;-70
2021/12/02 08:05:17;;;;;;;2.78;2.45;;;;;;;;;;4996351;28;20223;-70
2021/12/02 08:07:45;;;;;;;4.47;2.92;;;;;;;;;;4996920;28;20257;-71
2021/12/02 08:10:13;;;;;;;2.70;2.45;;;;;;;;;;4996579;28;20220;-70
2021/12/02 08:12:45;;;;;;;1.67;1.58;;;;;;;;;;4996854;28;20240;-70
2021/12/02 08:15:14;;;;;;;4.22;1.92;;;;;;;;;;4996376;28;20186;-70
2021/12/02 08:17:42;;;;;;;6.22;2.63;;;;;;;;;;4996416;28;20265;-70
2021/12/02 08:20:10;;;;;;;5.10;2.92;;;;;;;;;;4996212;28;20233;-70
2021/12/02 08:22:37;;;;;;;3.92;3.35;;;;;;;;;;4996079;28;20256;-70
2021/12/02 08:25:04;;;;;;;3.53;2.38;;;;;;;;;;4996911;28;20248;-70
2021/12/02 08:27:32;;;;;;;2.15;1.85;;;;;;;;;;4996009;28;20230;-70
2021/12/02 08:30:02;;;;;;;6.30;2.70;;;;;;;;;;4996668;28;20553;-70
2021/12/02 08:32:31;;;;;;;2.10;2.00;;;;;;;;;;4995781;28;20213;-70
2021/12/02 08:35:00;;;;;;;2.13;1.90;;;;;;;;;;4996093;28;20244;-69
2021/12/02 08:37:30;;;;;;;3.33;1.85;;;;;;;;;;4995960;28;20201;-70
2021/12/02 08:39:59;;;;;;;1.42;1.33;;;;;;;;;;4996189;28;20195;-69
2021/12/02 08:42:27;;;;;;;1.98;1.60;;;;;;;;;;4996064;28;20229;-69
2021/12/02 08:44:54;;;;;;;1.52;1.42;;;;;;;;;;4996438;28;20206;-69
2021/12/02 08:47:23;;;;;;;2.30;1.55;;;;;;;;;;4996521;28;20193;-69
2021/12/02 08:49:54;;;;;;;3.25;1.70;;;;;;;;;;4995485;28;20205;-69
2021/12/02 08:52:21;;;;;;;3.03;1.52;;;;;;;;;;4996122;28;20201;-69
2021/12/02 08:54:49;;;;;;;1.40;1.30;;;;;;;;;;4995498;28;20211;-69
2021/12/02 08:57:18;;;;;;;4.20;1.52;;;;;;;;;;4996462;28;20205;-69
2021/12/02 08:59:46;;;;;;;1.60;1.50;;;;;;;;;;4995283;28;20205;-69
2021/12/02 09:02:13;;;;;;;1.50;1.40;;;;;;;;;;4995495;28;20257;-70
2021/12/02 09:04:41;;;;;;;1.40;1.30;;;;;;;;;;4995423;28;20293;-69
2021/12/02 09:07:09;;;;;;;1.60;1.50;;;;;;;;;;4995258;28;20203;-70
2021/12/02 09:09:38;;;;;;;2.65;1.60;;;;;;;;;;4996208;28;20626;-69
2021/12/02 09:12:07;;;;;;;1.80;1.70;;;;;;;;;;4995557;28;20202;-69
2021/12/02 09:14:34;;;;;;;3.22;1.70;;;;;;;;;;4995496;28;20213;-70
2021/12/02 09:17:01;;;;;;;1.42;1.33;;;;;;;;;;4995774;28;20263;-70
2021/12/02 09:19:28;;;;;;;1.85;1.75;;;;;;;;;;4995154;28;20286;-69
2021/12/02 09:21:56;;;;;;;2.05;1.88;;;;;;;;;;4995270;28;20195;-70
2021/12/02 09:24:24;;;;;;;1.65;1.55;;;;;;;;;;4995385;28;20620;-70
2021/12/02 09:26:52;;;;;;;1.88;1.55;;;;;;;;;;4994845;28;20202;-70
2021/12/02 09:29:20;;;;;;;1.63;1.52;;;;;;;;;;4994860;28;20240;-71
2021/12/02 09:31:48;;;;;;;1.65;1.55;;;;;;;;;;4994896;28;20240;-70
2021/12/02 09:34:16;;;;;;;2.88;1.42;;;;;;;;;;4995471;28;20237;-70
2021/12/02 09:36:44;;;;;;;1.55;1.45;;;;;;;;;;4995153;28;20234;-70
2021/12/02 09:39:13;;;;;;;1.40;1.30;;;;;;;;;;4995283;28;20284;-70
2021/12/02 09:41:42;;;;;;;1.80;1.67;;;;;;;;;;4995178;28;20286;-70
2021/12/02 09:44:09;;;;;;;1.83;1.73;;;;;;;;;;4994623;28;20313;-70
2021/12/02 09:46:39;;;;;;;2.20;2.10;;;;;;;;;;4994789;28;20297;-70
2021/12/02 09:49:07;;;;;;;2.45;2.10;;;;;;;;;;4994649;28;20209;-70
2021/12/02 09:51:39;;;;;;;1.88;1.77;;;;;;;;;;4994849;28;20252;-70
2021/12/02 09:54:08;;;;;;;2.25;2.05;;;;;;;;;;4995381;28;20279;-70
2021/12/02 09:56:37;;;;;;;2.08;1.88;;;;;;;;;;4994393;28;20196;-70
2021/12/02 09:59:09;;;;;;;1.70;1.60;;;;;;;;;;4994527;28;20256;-70
2021/12/02 10:01:41;;;;;;;2.97;2.75;;;;;;;;;;4994973;28;20193;-70
2021/12/02 10:04:10;;;;;;;1.63;1.52;;;;;;;;;;4994247;28;20244;-69
2021/12/02 10:06:37;;;;;;;1.90;1.80;;;;;;;;;;4995113;28;20206;-69
2021/12/02 10:09:10;;;;;;;1.88;1.70;;;;;;;;;;4994486;28;20201;-70
2021/12/02 10:11:41;;;;;;;2.35;2.15;;;;;;;;;;4994292;28;20186;-69
2021/12/02 10:14:20;;;;;;;2.08;1.98;;;;;;;;;;4994687;28;20196;-70
2021/12/02 10:16:48;;;;;;;2.40;2.20;;;;;;;;;;4994166;28;20233;-70
2021/12/02 10:19:19;;;;;;;2.13;1.98;;;;;;;;;;4994217;28;20185;-70
2021/12/02 10:21:51;;;;;;;3.08;2.88;;;;;;;;;;4995059;28;20196;-70
2021/12/02 10:24:19;;;;;;;3.00;1.90;;;;;;;;;;4994367;28;20214;-70
2021/12/02 10:26:50;;;;;;;3.10;2.80;;;;;;;;;;4994093;28;20257;-70
2021/12/02 10:29:20;;;;;;;4.63;2.90;;;;;;;;;;4995146;28;20195;-70
2021/12/02 10:31:48;;;;;;;4.53;3.60;;;;;;;;;;4994534;28;20203;-70
2021/12/02 10:34:16;;;;;;;3.85;3.40;;;;;;;;;;4994574;28;20202;-70
2021/12/02 10:36:44;;;;;;;4.22;3.22;;;;;;;;;;4994451;28;20251;-70
2021/12/02 10:39:14;;;;;;;3.55;3.15;;;;;;;;;;4994644;28;20234;-70
2021/12/02 10:41:47;;;;;;;4.65;3.95;;;;;;;;;;4994296;28;20252;-70
2021/12/02 10:44:17;;;;;;;4.40;4.00;;;;;;;;;;4994205;28;20638;-70
2021/12/02 10:47:02;;;;;;;3.75;3.30;;;;;;;;;;4994381;28;20205;-70
2021/12/02 10:49:30;;;;;;;4.05;3.58;;;;;;;;;;4993853;28;20630;-70
2021/12/02 10:52:00;;;;;;;2.55;2.35;;;;;;;;;;4994154;28;20243;-70
2021/12/02 10:54:28;;;;;;;4.65;3.95;;;;;;;;;;4993740;28;20213;-69
2021/12/02 10:56:57;;;;;;;4.72;4.30;;;;;;;;;;4993716;28;20203;-70
2021/12/02 10:59:25;;;;;;;4.75;3.72;;;;;;;;;;4993948;28;20204;-70
2021/12/02 11:01:52;;;;;;;2.90;2.70;;;;;;;;;;4993665;28;20249;-70
2021/12/02 11:04:22;;;;;;;3.05;2.75;;;;;;;;;;4994439;28;20348;-70
2021/12/02 11:06:50;;;;;;;4.38;3.90;;;;;;;;;;4994422;28;20201;-70
2021/12/02 11:09:27;;;;;;;2.65;2.45;;;;;;;;;;4993869;28;20198;-70
2021/12/02 11:12:09;;;;;;;5.00;2.97;;;;;;;;;;4993620;28;20285;-70
2021/12/02 11:14:37;;;;;;;2.13;1.92;;;;;;;;;;4990920;28;20242;-70
2021/12/02 11:17:08;;;;;;;3.47;2.72;;;;;;;;;;4993565;28;20315;-70
2021/12/02 11:19:36;;;;;;;2.58;2.38;;;;;;;;;;4993535;28;20198;-70
2021/12/02 11:22:09;;;;;;;2.15;1.70;;;;;;;;;;4994428;28;20233;-69
2021/12/02 11:24:36;;;;;;;2.40;2.20;;;;;;;;;;4997117;28;20226;-70
2021/12/02 11:27:07;;;;;;;2.53;2.00;;;;;;;;;;4997441;28;20236;-70
2021/12/02 11:29:47;;;;;;;2.25;2.05;;;;;;;;;;4997417;28;20252;-70
2021/12/02 11:32:24;;;;;;;1.48;1.38;;;;;;;;;;4998175;28;20276;-70
2021/12/02 11:34:59;;;;;;;2.05;1.70;;;;;;;;;;4997540;28;20288;-69
2021/12/02 11:37:26;;;;;;;1.45;1.35;;;;;;;;;;4997452;28;20189;-70
2021/12/02 11:39:54;;;;;;;1.60;1.50;;;;;;;;;;4996978;28;20234;-70
2021/12/02 11:42:22;;;;;;;2.40;1.77;;;;;;;;;;4996983;28;20202;-70
2021/12/02 11:44:50;;;;;;;1.80;1.70;;;;;;;;;;4997724;28;20219;-70
2021/12/02 11:47:18;;;;;;;1.70;1.60;;;;;;;;;;4997404;28;20564;-70
2021/12/02 11:49:45;;;;;;;1.50;1.42;;;;;;;;;;4997437;28;20259;-70
2021/12/02 11:52:14;;;;;;;2.25;1.38;;;;;;;;;;4996807;28;20288;-70
2021/12/02 11:54:41;;;;;;;2.88;1.50;;;;;;;;;;4997090;28;20199;-70
2021/12/02 11:57:09;;;;;;;1.63;1.52;;;;;;;;;;4997232;28;20244;-70
2021/12/02 11:59:36;;;;;;;2.22;2.03;;;;;;;;;;4997213;28;20236;-70
2021/12/02 12:02:03;;;;;;;3.50;1.80;;;;;;;;;;4996400;28;20283;-70
2021/12/02 12:04:31;;;;;;;1.80;1.70;;;;;;;;;;4996329;28;20252;-70
2021/12/02 12:07:09;;;;;;;1.60;1.50;;;;;;;;;;4996768;28;20273;-70
2021/12/02 12:09:38;;;;;;;1.95;1.85;;;;;;;;;;4997382;28;20215;-70
2021/12/02 12:12:06;;;;;;;1.92;1.83;;;;;;;;;;4996349;28;20234;-70
2021/12/02 12:14:37;;;;;;;3.08;2.00;;;;;;;;;;4996298;28;20207;-70
2021/12/02 12:17:06;;;;;;;3.35;2.00;;;;;;;;;;4996720;28;20232;-70
2021/12/02 12:19:33;;;;;;;2.65;2.42;;;;;;;;;;4996644;28;20263;-70
2021/12/02 12:22:02;;;;;;;2.15;1.92;;;;;;;;;;4996085;28;20243;-70
2021/12/02 12:24:50;;;;;;;1.85;1.75;;;;;;;;;;4996232;28;20248;-70
2021/12/02 12:27:19;;;;;;;1.90;1.80;;;;;;;;;;4990204;28;20205;-69
2021/12/02 12:29:48;;;;;;;2.42;1.98;;;;;;;;;;4996233;28;20284;-68
2021/12/02 12:32:20;;;;;;;2.05;1.95;;;;;;;;;;4996295;28;20197;-70
2021/12/02 12:34:59;;;;;;;2.55;1.90;;;;;;;;;;4995793;28;20650;-70
2021/12/02 12:37:57;;;;;;;2.97;2.50;;;;;;;;;;4996589;28;20192;-70
2021/12/02 12:40:26;;;;;;;2.55;2.35;;;;;;;;;;4995830;28;20198;-71
2021/12/02 12:43:15;;;;;;;3.10;2.45;;;;;;;;;;4995927;28;20288;-71
2021/12/02 12:45:44;;;;;;;2.33;2.15;;;;;;;;;;4996206;28;20228;-70
2021/12/02 12:48:12;;;;;;;2.40;2.30;;;;;;;;;;4995760;28;20232;-71
2021/12/02 12:50:40;;;;;;;3.75;2.20;;;;;;;;;;4996031;28;20290;-70
2021/12/02 12:53:37;;;;;;;2.90;2.50;;;;;;;;;;4995716;28;20294;-70
2021/12/02 12:56:06;;;;;;;3.45;2.60;;;;;;;;;;4917347;29;20635;-70
2021/12/02 12:58:35;;;;;;;3.20;2.45;;;;;;;;;;4978480;28;20205;-71
2021/12/02 13:01:04;;;;;;;3.30;3.00;;;;;;;;;;4996308;28;20639;-71
2021/12/02 13:03:33;;;;;;;2.88;2.13;;;;;;;;;;4995410;28;20312;-70
2021/12/02 13:06:06;;;;;;;2.13;2.00;;;;;;;;;;4995281;28;20216;-70
2021/12/02 13:08:36;;;;;;;1.55;1.45;;;;;;;;;;4996193;28;20276;-69
2021/12/02 13:11:05;;;;;;;2.35;2.15;;;;;;;;;;4995977;28;20268;-71
2021/12/02 13:13:33;;;;;;;2.65;1.85;;;;;;;;;;4995345;28;20626;-72
2021/12/02 13:16:11;;;;;;;2.78;1.60;;;;;;;;;;4995459;28;20229;-72
2021/12/02 13:18:40;;;;;;;2.50;2.30;;;;;;;;;;4975507;28;20233;-73
2021/12/02 13:21:20;;;;;;;2.80;2.50;;;;;;;;;;4974544;28;20618;-72
2021/12/02 13:23:57;;;;;;;2.25;2.05;;;;;;;;;;4975428;28;20579;-71
2021/12/02 13:26:25;;;;;;;3.15;2.00;;;;;;;;;;4975733;28;20273;-72
2021/12/02 13:28:55;;;;;;;2.20;2.10;;;;;;;;;;4975902;28;20195;-72
2021/12/02 13:31:25;;;;;;;2.75;2.55;;;;;;;;;;4976284;28;20627;-72
2021/12/02 13:33:53;;;;;;;2.35;2.15;;;;;;;;;;4975747;28;20265;-72
2021/12/02 13:36:23;;;;;;;1.75;1.65;;;;;;;;;;4975714;28;20231;-72
2021/12/02 13:39:01;;;;;;;2.30;2.10;;;;;;;;;;4975306;28;20205;-72
2021/12/02 13:41:29;;;;;;;2.28;2.08;;;;;;;;;;4975781;28;20215;-72
2021/12/02 13:44:02;;;;;;;1.90;1.80;;;;;;;;;;4975183;28;20227;-72
2021/12/02 13:46:35;;;;;;;1.75;1.65;;;;;;;;;;4975328;28;20224;-72
2021/12/02 13:49:04;;;;;;;1.42;1.33;;;;;;;;;;4974891;28;20231;-72
2021/12/02 13:54:24;;;;;;;1.90;1.80;;;;;;;;;;4975262;28;20215;-72
2021/12/02 13:56:52;;;;;;;2.17;1.98;;;;;;;;;;4975045;28;20253;-72
2021/12/02 13:59:23;;;;;;;2.13;1.92;;;;;;;;;;4975047;28;20294;-72
2021/12/02 14:01:53;;;;;;;1.92;1.83;;;;;;;;;;4975013;28;20194;-73
2021/12/02 14:04:20;;;;;;;2.03;1.90;;;;;;;;;;4974885;28;20218;-72
2021/12/02 14:06:47;;;;;;;3.28;2.10;;;;;;;;;;4975295;28;20240;-72
2021/12/02 14:09:16;;;;;;;2.15;1.95;;;;;;;;;;4974917;28;20233;-72
2021/12/02 14:11:43;;;;;;;1.90;1.80;;;;;;;;;;4975268;28;20256;-72
2021/12/02 14:14:17;;;;;;;3.38;2.28;;;;;;;;;;4974626;28;20298;-72
2021/12/02 14:16:44;;;;;;;2.65;2.45;;;;;;;;;;4979895;28;20316;-73
2021/12/02 14:19:15;;;;;;;2.03;1.92;;;;;;;;;;4993902;28;20679;-72
2021/12/02 14:21:42;;;;;;;2.85;2.20;;;;;;;;;;4994638;28;20627;-72
2021/12/02 14:24:10;;;;;;;3.20;2.95;;;;;;;;;;4993878;28;20319;-71
2021/12/02 14:26:37;;;;;;;12.82;6.68;;;;;;;;;;4994288;28;20242;-72
2021/12/02 14:29:04;;;;;;;4.15;3.42;;;;;;;;;;4994145;28;20234;-74
2021/12/02 14:31:33;;;;;;;4.13;3.15;;;;;;;;;;4995028;28;20272;-73
2021/12/02 14:34:01;;;;;;;5.82;4.60;;;;;;;;;;4994475;28;20290;-73
2021/12/02 14:36:31;;;;;;;2.55;2.40;;;;;;;;;;5001157;28;20228;-72
2021/12/02 14:39:02;;;;;;;3.20;2.88;;;;;;;;;;5013727;28;20279;-72
2021/12/02 14:41:34;;;;;;;4.70;4.38;;;;;;;;;;5014056;28;20581;-74
2021/12/02 14:44:07;;;;;;;5.10;4.63;;;;;;;;;;5014128;28;20244;-72
2021/12/02 14:46:36;;;;;;;4.25;3.50;;;;;;;;;;5013602;28;20196;-72
2021/12/02 14:49:11;;;;;;;4.63;3.05;;;;;;;;;;5011566;28;20540;-72
2021/12/02 14:51:55;;;;;;;6.72;3.75;;;;;;;;;;4993803;28;20233;-72
2021/12/02 14:54:36;;;;;;;7.85;3.63;;;;;;;;;;4994130;28;20191;-73
2021/12/02 14:57:06;;;;;;;4.13;3.80;;;;;;;;;;4995852;28;20200;-72
2021/12/02 14:59:34;;;;;;;4.13;3.13;;;;;;;;;;4997770;28;20248;-73
2021/12/02 15:02:06;;;;;;;9.68;4.10;;;;;;;;;;4997715;28;20202;-73
2021/12/02 15:04:35;;;;;;;4.78;3.30;;;;;;;;;;4998123;28;20218;-72
2021/12/02 15:07:12;;;;;;;8.98;3.80;;;;;;;;;;4997625;28;20656;-71
2021/12/02 15:09:40;;;;;;;6.55;4.72;;;;;;;;;;4997528;28;20231;-72